M I D A S
Marine Information and Data Acquisition System
Tripno 367 of the Zeeleeuw from 2002-12-11 07:54:24 to 2002-12-11 13:24:04
Back to CruiseResearch ActivitiesStationsMapUnderway DataData graphs

EquipmentUnitsComment
TimeDGPSUTC
LatitudeDGPSDM.mWGS84
LongitudeDGPSDM.mWGS84
HeadingGyrodeg 
SOGDGPSknotsSpeed over ground
COGDGPSdegCourse over ground
DepthEcho soundermeters200 kHz
Missing or incorrect values are displayed as -999
Navigation data collected by the RV Zeeleeuw from 2002-12-11 07:54:24 to 2002-12-11 13:24:04
Time Latitude Longitude Heading SOG COG Depth
2002-12-11 07:55:27 51°13.588 2°56.129 134.3 0.1 228.2 8.2
2002-12-11 07:56:28 51°13.586 2°56.128 140.8 0.3 150.1 8.4
2002-12-11 07:57:27 51°13.55 2°56.171 144.2 3.8 142.1 10.7
2002-12-11 07:58:27 51°13.529 2°56.241 91.2 2.5 87.3 10.6
2002-12-11 07:59:27 51°13.539 2°56.277 59 0.3 20.9 8.2
2002-12-11 08:00:28 51°13.529 2°56.252 42.8 1.2 231.2 -999
2002-12-11 08:01:28 51°13.538 2°56.247 4.5 0.5 343 -999
2002-12-11 08:02:28 51°13.521 2°56.246 349.5 1.7 173.1 -999
2002-12-11 08:03:27 51°13.51 2°56.241 331.5 0.7 296.5 10.8
2002-12-11 08:04:27 51°13.536 2°56.187 312 3.9 307.2 10.7
2002-12-11 08:05:28 51°13.589 2°56.073 310.5 5.6 306.6 9.7
2002-12-11 08:06:24 51°13.639 2°55.955 307.3 5.9 303.4 11.2
2002-12-11 08:07:28 51°13.695 2°55.812 308.8 6 304 -999
2002-12-11 08:08:27 51°13.764 2°55.693 331.2 6.2 323.8 10.2
2002-12-11 08:09:27 51°13.859 2°55.621 343.7 6.4 339 10.7
2002-12-11 08:10:26 51°13.959 2°55.558 339 6.6 334.1 10.7
2002-12-11 08:11:27 51°14.057 2°55.471 336.7 6.9 330.5 10.7
2002-12-11 08:12:28 51°14.178 2°55.367 334.3 9.3 329.5 10.2
2002-12-11 08:13:27 51°14.297 2°55.185 314.8 10.4 309.6 10.2
2002-12-11 08:14:28 51°14.418 2°54.953 328.3 12.1 318.2 10.1
2002-12-11 08:15:32 51°14.61 2°54.753 334 13.1 327.3 9.8
2002-12-11 08:16:32 51°14.794 2°54.568 333.8 13.3 327.9 9.8
2002-12-11 08:17:33 51°14.99 2°54.376 333 13.6 328.3 8.8
2002-12-11 08:18:32 51°15.179 2°54.187 333 13.8 327.3 9.1
2002-12-11 08:19:32 51°15.373 2°53.988 333.8 14 327.5 10.1
2002-12-11 08:20:33 51°15.573 2°53.786 333.3 13.8 327.2 10.8
2002-12-11 08:21:33 51°15.768 2°53.589 333.5 13.8 327.4 11.6
2002-12-11 08:22:33 51°15.964 2°53.391 333.5 14 327.3 12.2
2002-12-11 08:23:32 51°16.157 2°53.197 333.8 13.9 327.2 12.4
2002-12-11 08:24:32 51°16.351 2°53.001 334.2 13.9 328.1 12.7
2002-12-11 08:25:33 51°16.55 2°52.802 333.5 13.9 328 12
2002-12-11 08:26:32 51°16.748 2°52.623 337.5 13.7 332.3 9.8
2002-12-11 08:27:33 51°16.968 2°52.5 349.7 13.8 343.6 9.8
2002-12-11 08:28:32 51°17.184 2°52.405 354 13.8 347.1 10.2
2002-12-11 08:29:33 51°17.413 2°52.317 353.3 13.9 346.9 10.6
2002-12-11 08:30:33 51°17.637 2°52.229 353.2 13.7 345.3 10.3
2002-12-11 08:31:32 51°17.862 2°52.164 1.2 13.8 353.5 10.6
2002-12-11 08:32:32 51°18.091 2°52.13 5.2 13.9 355.8 10.9
2002-12-11 08:33:32 51°18.304 2°52.222 40.2 13.2 32.4 11.4
2002-12-11 08:34:33 51°18.46 2°52.473 57.3 13.2 50.6 11.4
2002-12-11 08:35:33 51°18.592 2°52.748 62.3 13.2 55.3 11.7
2002-12-11 08:36:32 51°18.706 2°53.031 63.5 13.1 57 11.5
2002-12-11 08:37:33 51°18.826 2°53.324 63.5 12.9 56.7 11.8
2002-12-11 08:38:33 51°18.942 2°53.61 63.7 13.1 56.5 12.1
2002-12-11 08:39:33 51°19.055 2°53.905 65.7 13 59.1 12
2002-12-11 08:40:32 51°19.167 2°54.192 64.5 12.8 58.2 11.9
2002-12-11 08:41:33 51°19.285 2°54.487 65 12.9 57.6 12.1
2002-12-11 08:42:32 51°19.399 2°54.771 64.5 12.9 58.1 12.1
2002-12-11 08:43:33 51°19.518 2°55.066 65 13.1 57 12.3
2002-12-11 08:44:33 51°19.635 2°55.358 64.7 13 57.3 12.3
2002-12-11 08:45:34 51°19.756 2°55.653 65 13 57.2 12.2
2002-12-11 08:46:32 51°19.869 2°55.934 65 13 57.5 12.2
2002-12-11 08:47:32 51°19.987 2°56.221 64.5 12.8 57 12.2
2002-12-11 08:48:32 51°20.104 2°56.507 66.3 13.1 57.5 12.2
2002-12-11 08:49:32 51°20.165 2°56.831 80.5 12.8 73.8 12.1
2002-12-11 08:50:32 51°20.231 2°57.156 80.2 12.8 72.7 11.8
2002-12-11 08:51:33 51°20.296 2°57.485 78.8 12.7 72.1 11.7
2002-12-11 08:52:33 51°20.362 2°57.809 79.7 12.7 72.3 11.5
2002-12-11 08:53:33 51°20.428 2°58.132 78.8 12.7 71.9 11.4
2002-12-11 08:54:33 51°20.493 2°58.452 78.3 12.6 72.2 11.4
2002-12-11 08:55:33 51°20.559 2°58.77 79 12.5 71.7 11.3
2002-12-11 08:56:32 51°20.623 2°59.085 78.3 12.7 71.6 11.3
2002-12-11 08:57:34 51°20.69 2°59.416 79.5 12.6 72.1 11.1
2002-12-11 08:58:32 51°20.754 2°59.726 78.7 12.7 71.9 11
2002-12-11 08:59:34 51°20.822 3°0.056 78.8 12.6 71.8 10.9
2002-12-11 09:00:33 51°20.885 3°0.368 78.3 12.5 71.2 10.9
2002-12-11 09:01:33 51°20.95 3°0.687 79 12.6 71.2 10.9
2002-12-11 09:02:33 51°21.015 3°1.004 78.8 12.5 70.7 10.8
2002-12-11 09:03:33 51°21.081 3°1.32 78.8 12.4 71.5 10.9
2002-12-11 09:04:33 51°21.146 3°1.639 79 12.5 71.9 10.8
2002-12-11 09:05:33 51°21.212 3°1.955 78.3 12.6 71.6 10.9
2002-12-11 09:06:33 51°21.276 3°2.268 78 12.5 71.5 11
2002-12-11 09:07:32 51°21.341 3°2.577 78.8 12.5 72.3 10.8
2002-12-11 09:08:32 51°21.405 3°2.891 78.5 12.5 72 10.8
2002-12-11 09:09:32 51°21.471 3°3.207 79 12.5 72 10.9
2002-12-11 09:10:32 51°21.537 3°3.525 78.5 12.5 71 11
2002-12-11 09:11:32 51°21.603 3°3.842 78.3 12.6 71.8 11
2002-12-11 09:12:33 51°21.669 3°4.165 79.3 12.5 71.8 11.1
2002-12-11 09:13:32 51°21.733 3°4.479 78.5 12.6 72.5 11
2002-12-11 09:14:33 51°21.8 3°4.802 78.2 12.6 71.5 11.2
2002-12-11 09:15:33 51°21.866 3°5.12 78.5 12.6 72.1 11.2
2002-12-11 09:16:32 51°21.931 3°5.432 79.2 12.5 71.8 11.4
2002-12-11 09:17:32 51°21.996 3°5.748 78.8 12.6 71.9 11.5
2002-12-11 09:18:33 51°22.062 3°6.069 79.3 12.4 71.6 11.6
2002-12-11 09:19:33 51°22.128 3°6.386 79.2 12.5 71.9 11.7
2002-12-11 09:20:33 51°22.194 3°6.702 78.5 12.5 71.7 12
2002-12-11 09:21:32 51°22.257 3°7.013 79 12.5 72.4 11.9
2002-12-11 09:22:33 51°22.324 3°7.332 78.7 12.5 71.4 12
2002-12-11 09:23:33 51°22.387 3°7.646 79 12.4 72.7 12.1
2002-12-11 09:24:33 51°22.452 3°7.958 79.2 12.3 71.7 12.3
2002-12-11 09:25:33 51°22.517 3°8.269 78.5 12.4 71.5 12.4
2002-12-11 09:26:33 51°22.581 3°8.58 81.7 12.3 74 12.3
2002-12-11 09:27:32 51°22.627 3°8.852 83.8 8 75.5 12.6
2002-12-11 09:28:33 51°22.645 3°8.987 88.3 3.6 78 12.6
2002-12-11 09:29:32 51°22.653 3°9.049 88 2 78 12.7
2002-12-11 09:30:33 51°22.663 3°9.099 83.5 2 68.5 12.7
2002-12-11 09:31:32 51°22.685 3°9.171 80.2 3.4 65.4 12.7
2002-12-11 09:32:44 51°22.693 3°9.275 94.8 2.8 88.9 12.9
2002-12-11 09:33:46 51°22.694 3°9.375 91.3 4.3 87.9 13
2002-12-11 09:34:48 51°22.702 3°9.448 82.7 1.8 67.1 13
2002-12-11 09:35:49 51°22.717 3°9.464 68.3 1 355.2 12.8
2002-12-11 09:36:48 51°22.731 3°9.45 72.8 1.2 303.4 12.8
2002-12-11 09:37:49 51°22.742 3°9.42 67.5 1.3 305.1 12.9
2002-12-11 09:38:49 51°22.751 3°9.398 81.3 0.8 301.7 12.8
2002-12-11 09:39:48 51°22.753 3°9.382 93.7 0.5 272.9 12.9
2002-12-11 09:40:48 51°22.758 3°9.365 64.2 1.1 307.6 12.8
2002-12-11 09:41:48 51°22.774 3°9.342 58.3 1.4 324.1 12.8
2002-12-11 09:42:49 51°22.791 3°9.324 64.2 1.1 323.2 12.6
2002-12-11 09:43:49 51°22.806 3°9.306 65.8 1.2 329.6 12.8
2002-12-11 09:44:49 51°22.821 3°9.29 65.7 1.1 326 12.8
2002-12-11 09:45:49 51°22.836 3°9.275 69.7 1 327.1 12.9
2002-12-11 09:46:49 51°22.849 3°9.263 74.2 0.8 332.9 12.8
2002-12-11 09:47:49 51°22.878 3°9.257 19.7 3.4 348.3 12.8
2002-12-11 09:48:48 51°22.962 3°9.171 336 8.1 321.7 12.5
2002-12-11 09:49:49 51°23.078 3°8.974 321.2 10.8 310.5 12.4
2002-12-11 09:50:49 51°23.189 3°8.785 329.3 8 313.8 11.8
2002-12-11 09:51:48 51°23.307 3°8.639 335.8 12.2 324.4 12.7
2002-12-11 09:52:48 51°23.472 3°8.375 315.3 15 306.7 15.6
2002-12-11 09:53:49 51°23.623 3°8.044 313.5 15 306.2 17.3
2002-12-11 09:54:49 51°23.766 3°7.712 311 15.2 302.8 18.2
2002-12-11 09:55:49 51°23.907 3°7.387 312.5 14.5 304.9 18
2002-12-11 09:56:49 51°24.01 3°7.174 320.3 8 309 18.6
2002-12-11 09:57:49 51°24.084 3°7.043 331.5 6.1 314 18.5
2002-12-11 09:58:49 51°24.167 3°6.93 338 6.6 320.9 16.2
2002-12-11 09:59:48 51°24.252 3°6.866 30.8 5.3 3.5 14.1
2002-12-11 10:00:49 51°24.289 3°6.972 89 5.3 79.5 13.5
2002-12-11 10:01:49 51°24.297 3°7.031 104.3 0.9 99.4 13.1
2002-12-11 10:02:49 51°24.29 3°7.042 108.5 0.5 159.5 13.2
2002-12-11 10:03:50 51°24.28 3°7.044 109.2 0.5 179.8 13.4
2002-12-11 10:04:49 51°24.274 3°7.045 102.2 0.2 166 13.6
2002-12-11 10:05:48 51°24.274 3°7.047 92.3 0.2 21.6 13.5
2002-12-11 10:06:48 51°24.281 3°7.048 78.7 0.7 353 13.3
2002-12-11 10:07:48 51°24.3 3°7.038 54.3 1.7 334.9 12.9
2002-12-11 10:08:49 51°24.33 3°7.015 43.5 2 329.6 12.4
2002-12-11 10:09:48 51°24.351 3°6.978 37.3 2 303.7 12.3
2002-12-11 10:10:48 51°24.368 3°6.931 36.7 2.1 293.6 11.9
2002-12-11 10:11:49 51°24.384 3°6.88 36 2.1 308.6 11.9
2002-12-11 10:12:49 51°24.402 3°6.834 36.7 2.1 294.3 11.4
2002-12-11 10:13:49 51°24.412 3°6.777 17.2 2.3 281.1 11.6
2002-12-11 10:14:48 51°24.418 3°6.718 359.3 2.3 277.3 11.6
2002-12-11 10:15:48 51°24.423 3°6.657 351.7 2.3 277.4 11.6
2002-12-11 10:16:49 51°24.43 3°6.596 340.2 2.5 283.9 11.5
2002-12-11 10:17:49 51°24.448 3°6.521 319.8 3.5 294.9 11.7
2002-12-11 10:18:49 51°24.468 3°6.416 280.8 4.1 277.7 12
2002-12-11 10:19:48 51°24.467 3°6.317 251 3.9 260.4 12.1
2002-12-11 10:20:49 51°24.432 3°6.235 188.8 3.4 217.1 12.1
2002-12-11 10:21:48 51°24.385 3°6.222 140.7 2.8 166.1 12.5
2002-12-11 10:22:48 51°24.361 3°6.278 93 3.1 87.8 12.6
2002-12-11 10:23:48 51°24.364 3°6.382 95.8 4.2 90.7 12.1
2002-12-11 10:24:49 51°24.361 3°6.504 100.5 4.8 96.8 11.8
2002-12-11 10:25:49 51°24.346 3°6.625 104.3 4.2 101.1 12
2002-12-11 10:26:49 51°24.34 3°6.698 100.8 2 97 12.1
2002-12-11 10:27:48 51°24.336 3°6.733 105.5 1.1 110.4 12.1
2002-12-11 10:28:48 51°24.328 3°6.754 108.7 1 123.9 12.2
2002-12-11 10:29:48 51°24.319 3°6.779 111.7 1.1 128.7 12.4
2002-12-11 10:30:49 51°24.304 3°6.809 118.7 1.8 130.9 12.5
2002-12-11 10:31:49 51°24.27 3°6.843 127 2.6 145.6 13.4
2002-12-11 10:32:48 51°24.255 3°6.874 93.5 0.7 72.9 13.8
2002-12-11 10:33:49 51°24.264 3°6.884 91.2 0.5 24.2 13.5
2002-12-11 10:34:49 51°24.27 3°6.886 97.7 0.3 353.7 13.6
2002-12-11 10:35:49 51°24.276 3°6.882 92.5 0.6 345.8 13.4
2002-12-11 10:36:48 51°24.288 3°6.878 82.3 0.9 335.1 13.1
2002-12-11 10:37:49 51°24.303 3°6.848 66.8 1.7 305.3 12.7
2002-12-11 10:38:48 51°24.344 3°6.815 355.3 4.4 328.2 11.8
2002-12-11 10:39:49 51°24.405 3°6.662 301.5 8.7 294.2 11.2
2002-12-11 10:40:49 51°24.462 3°6.399 294.7 11 288.3 11.7
2002-12-11 10:41:48 51°24.52 3°6.125 296.2 11.1 288.7 12.4
2002-12-11 10:42:48 51°24.58 3°5.847 292 10.8 287.2 11.7
2002-12-11 10:43:49 51°24.614 3°5.552 284.3 11.2 279.1 11.7
2002-12-11 10:44:49 51°24.645 3°5.258 285.3 11.3 279.9 12.1
2002-12-11 10:45:49 51°24.68 3°5.035 294.3 6.9 286.1 11.7
2002-12-11 10:46:49 51°24.713 3°4.891 308.7 5.1 293.3 12.4
2002-12-11 10:47:49 51°24.747 3°4.79 324.7 3.9 301.3 12.5
2002-12-11 10:48:49 51°24.776 3°4.714 333 3 299 12.8
2002-12-11 10:49:49 51°24.795 3°4.655 341.5 2.3 294.2 12.9
2002-12-11 10:50:49 51°24.808 3°4.601 348.7 2.1 292.1 13.1
2002-12-11 10:51:48 51°24.818 3°4.551 352.5 2 284.7 13.1
2002-12-11 10:52:48 51°24.825 3°4.499 353.3 1.9 278.3 13
2002-12-11 10:53:49 51°24.827 3°4.446 355.8 2 269.3 12.8
2002-12-11 10:54:49 51°24.825 3°4.395 349.5 2 264.6 13.1
2002-12-11 10:55:49 51°24.822 3°4.343 340.2 2 260.4 13
2002-12-11 10:56:49 51°24.818 3°4.292 339.2 1.9 264.9 13.3
2002-12-11 10:57:48 51°24.815 3°4.24 339.2 2 265.1 13.1
2002-12-11 10:58:49 51°24.814 3°4.185 343.7 2.1 268.1 13.1
2002-12-11 10:59:48 51°24.814 3°4.131 346.8 2.1 269.8 13.3
2002-12-11 11:00:49 51°24.812 3°4.075 347 2 268.6 13.4
2002-12-11 11:01:48 51°24.812 3°4.024 349.7 1.9 267.9 13.5
2002-12-11 11:02:48 51°24.811 3°3.97 348.2 2.1 263.6 13.5
2002-12-11 11:03:49 51°24.809 3°3.917 350 2 264 13.5
2002-12-11 11:04:50 51°24.806 3°3.863 345 2.1 263.5 13.6
2002-12-11 11:05:50 51°24.801 3°3.808 339.7 2.1 263.1 13.9
2002-12-11 11:06:49 51°24.806 3°3.75 344.2 2.9 300 14.3
2002-12-11 11:07:49 51°24.865 3°3.687 355.8 5.6 334.2 13.5
2002-12-11 11:08:48 51°24.971 3°3.598 340.5 8 326.8 13.6
2002-12-11 11:09:48 51°25.09 3°3.453 334 9.2 321.6 13.2
2002-12-11 11:10:49 51°25.189 3°3.261 307.2 9.4 299.7 12.5
2002-12-11 11:11:49 51°25.234 3°3.036 285.3 7.6 280.3 12.9
2002-12-11 11:12:50 51°25.246 3°2.881 294.5 4.7 281.5 12.5
2002-12-11 11:13:49 51°25.266 3°2.784 320 3.5 292 12.7
2002-12-11 11:14:50 51°25.289 3°2.711 332.3 2.8 302.1 12.8
2002-12-11 11:15:49 51°25.307 3°2.653 343.5 2.3 293.3 12.7
2002-12-11 11:16:50 51°25.319 3°2.601 352.5 2 290.8 12.6
2002-12-11 11:17:49 51°25.328 3°2.556 355.8 1.8 286.5 12.6
2002-12-11 11:18:49 51°25.343 3°2.503 338.3 2.6 298.3 12.4
2002-12-11 11:19:49 51°25.366 3°2.427 306.8 3.8 290.6 12.2
2002-12-11 11:20:49 51°25.365 3°2.322 246.5 4 251.6 12.4
2002-12-11 11:21:49 51°25.316 3°2.239 202.5 5.3 213.4 12.4
2002-12-11 11:22:49 51°25.207 3°2.156 194.7 8.7 201 13
2002-12-11 11:23:49 51°25.054 3°2.08 191.3 9.8 196.1 13.5
2002-12-11 11:24:49 51°24.893 3°1.991 196.7 10.4 202.1 15.8
2002-12-11 11:25:49 51°24.731 3°1.949 178.7 9.8 185.5 17.7
2002-12-11 11:26:50 51°24.566 3°1.928 178.3 9.9 184.7 17.5
2002-12-11 11:27:49 51°24.405 3°1.91 179.2 9.9 182.6 17
2002-12-11 11:28:49 51°24.24 3°1.884 180 10 184.9 17.2
2002-12-11 11:29:48 51°24.079 3°1.852 179 9.9 186.2 16.4
2002-12-11 11:30:49 51°23.912 3°1.818 182.3 10 189.2 15.5
2002-12-11 11:31:49 51°23.753 3°1.713 202.8 10.6 208.1 14.9
2002-12-11 11:32:49 51°23.596 3°1.587 202 10.6 207 14.1
2002-12-11 11:33:49 51°23.441 3°1.456 203.3 10.5 206.7 13.3
2002-12-11 11:34:50 51°23.282 3°1.322 203.8 10.7 205.6 12.3
2002-12-11 11:35:48 51°23.131 3°1.2 204.8 10.7 207.5 12
2002-12-11 11:36:49 51°22.971 3°1.07 205.2 10.6 207.7 11.6
2002-12-11 11:37:48 51°22.816 3°0.938 204.3 10.7 207.8 11.3
2002-12-11 11:38:49 51°22.653 3°0.81 204.7 10.7 206.3 11
2002-12-11 11:39:48 51°22.498 3°0.684 206.2 10.7 207.9 10.4
2002-12-11 11:40:49 51°22.336 3°0.557 204.7 10.7 205.5 10.3
2002-12-11 11:41:48 51°22.179 3°0.432 205.2 10.8 206.4 10.2
2002-12-11 11:42:50 51°22.015 3°0.3 203.5 10.7 206.6 10.2
2002-12-11 11:43:49 51°21.858 3°0.172 205.5 10.9 207.3 10.3
2002-12-11 11:44:49 51°21.698 3°0.041 204.2 10.9 206.5 10.5
2002-12-11 11:45:49 51°21.536 2°59.929 190.5 10.2 195.4 10.4
2002-12-11 11:46:48 51°21.371 2°59.914 177 10.1 180.2 10.3
2002-12-11 11:47:49 51°21.2 2°59.919 173.3 10.1 176.2 10.3
2002-12-11 11:48:49 51°21.03 2°59.919 173.7 10.1 178.3 10.1
2002-12-11 11:49:48 51°20.874 2°59.94 165.3 8 173.7 10.1
2002-12-11 11:50:49 51°20.786 2°59.966 149.8 4 170.2 10
2002-12-11 11:51:50 51°20.735 2°59.971 149.5 2.6 181.7 9.9
2002-12-11 11:52:48 51°20.699 2°59.96 151 2.1 196.3 9.9
2002-12-11 11:53:48 51°20.668 2°59.94 154.3 1.8 209.8 9.9
2002-12-11 11:54:50 51°20.642 2°59.909 157.7 1.8 218.8 9.9
2002-12-11 11:55:49 51°20.621 2°59.877 160.7 1.8 225.5 9.9
2002-12-11 11:56:48 51°20.6 2°59.845 159.5 1.8 227.3 9.8
2002-12-11 11:57:48 51°20.579 2°59.81 161.7 1.8 226.4 9.8
2002-12-11 11:58:49 51°20.561 2°59.776 161.2 1.8 227.1 9.8
2002-12-11 11:59:50 51°20.54 2°59.739 160.5 1.8 232.1 9.8
2002-12-11 12:00:50 51°20.521 2°59.701 161.7 1.8 233.3 9.8
2002-12-11 12:01:49 51°20.505 2°59.665 163.2 1.8 232.6 9.7
2002-12-11 12:02:48 51°20.485 2°59.627 168.2 1.9 229 9.9
2002-12-11 12:03:50 51°20.463 2°59.589 170.2 1.8 227.8 9.8
2002-12-11 12:04:50 51°20.442 2°59.551 169 1.9 227.5 9.8
2002-12-11 12:05:48 51°20.42 2°59.517 165.7 1.9 224.8 9.7
2002-12-11 12:06:49 51°20.397 2°59.48 165.2 1.9 223.3 9.6
2002-12-11 12:07:50 51°20.374 2°59.444 162.5 1.9 225.9 9.7
2002-12-11 12:08:48 51°20.353 2°59.41 159.3 1.9 225 9.7
2002-12-11 12:09:49 51°20.274 2°59.4 177.3 7.8 183.5 9.5
2002-12-11 12:10:50 51°20.124 2°59.284 225.7 10.9 222.1 9.1
2002-12-11 12:11:50 51°20.055 2°59.015 260.2 11.2 255.2 9.1
2002-12-11 12:12:49 51°19.992 2°58.734 255.8 11.6 250.8 9.3
2002-12-11 12:13:50 51°19.928 2°58.439 256.7 11.5 251.1 9.3
2002-12-11 12:14:50 51°19.866 2°58.15 256.3 11.5 251.5 9.5
2002-12-11 12:15:50 51°19.804 2°57.861 255.2 11.5 249.9 9.5
2002-12-11 12:16:50 51°19.741 2°57.57 255.8 11.7 250.5 9.6
2002-12-11 12:17:49 51°19.676 2°57.281 255.8 11.8 251 9.7
2002-12-11 12:18:50 51°19.61 2°56.979 256.7 11.8 250.6 9.8
2002-12-11 12:19:49 51°19.546 2°56.689 257.2 11.7 250.9 9.9
2002-12-11 12:20:50 51°19.479 2°56.391 257 11.7 248.8 10
2002-12-11 12:21:50 51°19.413 2°56.095 257.2 11.8 251.1 10.1
2002-12-11 12:22:50 51°19.345 2°55.8 256.3 11.7 250.1 10.2
2002-12-11 12:23:50 51°19.28 2°55.511 256 11.6 250 10.5
2002-12-11 12:24:50 51°19.213 2°55.22 256.5 11.7 250.4 10.5
2002-12-11 12:25:50 51°19.144 2°54.93 255.3 11.6 248.6 10.7
2002-12-11 12:26:49 51°19.081 2°54.644 256.7 11.6 250.9 10.6
2002-12-11 12:27:50 51°19.012 2°54.348 257.2 11.6 249.9 10.6
2002-12-11 12:28:48 51°18.946 2°54.069 255.8 11.5 248.6 10.6
2002-12-11 12:29:50 51°18.876 2°53.773 253.2 11.6 247.7 10.7
2002-12-11 12:30:49 51°18.798 2°53.496 251 11.6 246.3 10.5
2002-12-11 12:31:50 51°18.715 2°53.212 252.5 11.6 246.4 10.5
2002-12-11 12:32:50 51°18.633 2°52.934 249.3 11.6 243.6 10.5
2002-12-11 12:33:49 51°18.542 2°52.673 245 11.5 236.4 10.2
2002-12-11 12:34:50 51°18.424 2°52.428 232.7 11.5 228.1 10.3
2002-12-11 12:35:50 51°18.281 2°52.229 216.5 11.4 214.3 10
2002-12-11 12:36:50 51°18.107 2°52.127 190.2 11.1 190.2 9.8
2002-12-11 12:37:50 51°17.928 2°52.134 172.8 11.1 175.5 9.4
2002-12-11 12:38:50 51°17.749 2°52.156 174 10.7 174.4 9.6
2002-12-11 12:39:50 51°17.566 2°52.175 175.7 10.8 176.1 9.6
2002-12-11 12:40:50 51°17.384 2°52.192 176.7 11 176.3 9.5
2002-12-11 12:41:50 51°17.213 2°52.263 159.2 10.5 161.2 9.4
2002-12-11 12:42:50 51°17.051 2°52.366 156.2 10.6 157.4 8.9
2002-12-11 12:43:50 51°16.888 2°52.473 155.5 10.6 156.1 9.3
2002-12-11 12:44:50 51°16.728 2°52.586 152 10.2 152.1 9
2002-12-11 12:45:49 51°16.598 2°52.75 136.8 10.1 138.3 10.6
2002-12-11 12:46:50 51°16.476 2°52.942 135.2 10.2 135.8 11.2
2002-12-11 12:47:50 51°16.357 2°53.129 135 10 133.9 11.5
2002-12-11 12:48:49 51°16.238 2°53.308 135.8 10 136.7 11.4
2002-12-11 12:49:49 51°16.109 2°53.476 137.3 10 140.6 11.1
2002-12-11 12:50:50 51°15.981 2°53.649 135.7 9.9 140.3 10.8
2002-12-11 12:51:50 51°15.899 2°53.845 96.5 8.5 99.8 10.4
2002-12-11 12:52:49 51°15.93 2°54.061 75.2 8.7 71.5 10.2
2002-12-11 12:53:49 51°15.976 2°54.241 67.8 5.3 64.8 10.3
2002-12-11 12:54:49 51°16.008 2°54.31 51.2 2.3 38.9 10.4
2002-12-11 12:55:50 51°16.031 2°54.33 47.5 1.4 20.8 10.4
2002-12-11 12:56:49 51°16.078 2°54.334 359.2 4.5 341.3 10.5
2002-12-11 12:57:50 51°16.122 2°54.198 281.3 6.9 272.5 10.7
2002-12-11 12:58:50 51°16.051 2°54.052 203.8 7.3 207.4 10.6
2002-12-11 12:59:50 51°15.912 2°54.029 177.5 9.1 181.3 10.3
2002-12-11 13:00:50 51°15.758 2°54.053 167.3 9.3 170.5 9.9
2002-12-11 13:01:50 51°15.612 2°54.129 158.7 9.2 160.7 9.3
2002-12-11 13:02:50 51°15.468 2°54.214 156.2 9.2 158.6 8.9
2002-12-11 13:03:49 51°15.324 2°54.301 156 9.4 158.3 8.3
2002-12-11 13:04:48 51°15.185 2°54.397 156.8 9.3 158.2 7.8
2002-12-11 13:05:50 51°15.038 2°54.494 156.8 9.2 158.3 7.3
2002-12-11 13:06:48 51°14.901 2°54.588 154.7 9.4 156.5 8.5
2002-12-11 13:07:49 51°14.759 2°54.69 156.8 9.1 157 8.5
2002-12-11 13:08:49 51°14.62 2°54.792 152.3 9.1 154.4 8.4
2002-12-11 13:09:49 51°14.488 2°54.91 144.3 8.9 145.5 8.7
2002-12-11 13:10:49 51°14.382 2°55.063 136 8.2 133.3 9
2002-12-11 13:11:50 51°14.295 2°55.212 139.2 6.8 135.1 9.1
2002-12-11 13:12:50 51°14.223 2°55.316 146.3 5.4 142.6 -999
2002-12-11 13:13:50 51°14.15 2°55.385 155.5 5 152.9 9.1
2002-12-11 13:14:50 51°14.077 2°55.44 157.3 4.8 154.5 9.6
2002-12-11 13:15:50 51°14.006 2°55.495 155.2 4.8 152.3 9.5
2002-12-11 13:16:50 51°13.932 2°55.551 158.5 4.9 155.7 9.7
2002-12-11 13:17:50 51°13.859 2°55.61 154.3 4.9 151.3 9.4
2002-12-11 13:18:51 51°13.789 2°55.68 148.3 4.9 145.2 -999
2002-12-11 13:19:49 51°13.734 2°55.759 136.2 4.7 133.6 9.7
2002-12-11 13:20:50 51°13.684 2°55.851 130 4.2 128.2 -999
2002-12-11 13:21:49 51°13.649 2°55.93 127.7 3.4 125.5 9.9
2002-12-11 13:22:50 51°13.621 2°55.998 125.5 2.8 121.3 9.1
2002-12-11 13:23:50 51°13.601 2°56.061 113.3 2.5 110.7 8.9